Time;durP1;ratioP1;P1;durP2;ratioP2;P2;SDS_P1;SDS_P2;PMS_P1;PMS_P2;Temp;Humidity;BMP_temperature;BMP_pressure;BME280_temperature;BME280_humidity;BME280_pressure;Samples;Min_cycle;Max_cycle;Signal;HPM_P1;HPM_P2
2021/12/23 06:36:17;;;;;;;95.22;45.30;;;;;;;;;;5631701;23;21715;-60
2021/12/23 06:38:44;;;;;;;94.18;46.35;;;;;;;;;;4892837;29;20072;-61
2021/12/23 06:41:10;;;;;;;100.68;47.97;;;;;;;;;;4896328;29;20037;-61
2021/12/23 06:43:36;;;;;;;109.25;52.13;;;;;;;;;;4896361;29;20046;-60
2021/12/23 06:46:03;;;;;;;113.70;51.97;;;;;;;;;;4896202;29;20084;-60
2021/12/23 06:48:32;;;;;;;105.55;50.38;;;;;;;;;;4896167;29;20108;-60
2021/12/23 06:50:59;;;;;;;101.05;49.17;;;;;;;;;;4896075;29;20389;-60
2021/12/23 06:53:26;;;;;;;110.22;50.33;;;;;;;;;;4879449;29;20060;-62
2021/12/23 06:55:52;;;;;;;110.45;49.95;;;;;;;;;;4896110;29;20487;-65
2021/12/23 06:58:23;;;;;;;106.32;51.67;;;;;;;;;;4895898;29;20076;-63
2021/12/23 07:00:49;;;;;;;122.75;59.33;;;;;;;;;;4889539;29;20021;-61
2021/12/23 07:03:16;;;;;;;136.45;68.43;;;;;;;;;;4885928;29;20556;-62
2021/12/23 07:05:42;;;;;;;145.70;71.07;;;;;;;;;;4884587;29;20044;-60
2021/12/23 07:08:11;;;;;;;158.40;73.30;;;;;;;;;;4883467;29;20045;-60
2021/12/23 07:10:38;;;;;;;156.23;76.10;;;;;;;;;;4895593;29;20020;-60
2021/12/23 07:13:08;;;;;;;162.13;75.40;;;;;;;;;;4895923;29;20033;-60
2021/12/23 07:15:36;;;;;;;151.43;72.00;;;;;;;;;;4895723;29;20101;-60
2021/12/23 07:18:02;;;;;;;146.77;70.80;;;;;;;;;;4895599;29;20060;-63
2021/12/23 07:20:29;;;;;;;160.50;74.38;;;;;;;;;;4895518;29;20029;-61
2021/12/23 07:22:55;;;;;;;168.15;82.25;;;;;;;;;;4891380;29;20036;-61
2021/12/23 07:25:21;;;;;;;195.50;84.75;;;;;;;;;;4892843;29;20028;-61
2021/12/23 07:27:48;;;;;;;192.73;86.40;;;;;;;;;;4886121;29;20151;-60
2021/12/23 07:30:16;;;;;;;189.48;86.78;;;;;;;;;;4889562;29;20032;-60
2021/12/23 07:32:42;;;;;;;186.60;84.35;;;;;;;;;;4895603;29;20364;-63
2021/12/23 07:35:09;;;;;;;178.40;79.50;;;;;;;;;;4886289;29;20060;-60
2021/12/23 07:37:36;;;;;;;187.02;83.10;;;;;;;;;;4875244;29;20064;-59
2021/12/23 07:40:03;;;;;;;200.93;87.25;;;;;;;;;;4868213;29;20025;-60
2021/12/23 07:42:31;;;;;;;181.13;80.43;;;;;;;;;;4874085;29;20033;-65
2021/12/23 07:44:57;;;;;;;161.40;74.70;;;;;;;;;;4874815;29;20040;-62
2021/12/23 07:47:23;;;;;;;152.35;69.82;;;;;;;;;;4880279;29;20096;-61
2021/12/23 07:49:50;;;;;;;145.00;67.00;;;;;;;;;;4880935;29;20041;-61
2021/12/23 07:52:16;;;;;;;144.88;66.65;;;;;;;;;;4880810;29;20076;-61
2021/12/23 07:54:44;;;;;;;110.50;54.65;;;;;;;;;;4870424;29;20061;-63
2021/12/23 07:57:10;;;;;;;107.90;50.80;;;;;;;;;;4872039;29;20496;-63
2021/12/23 07:59:36;;;;;;;84.47;42.53;;;;;;;;;;4870565;29;20530;-60
2021/12/23 08:02:03;;;;;;;73.10;37.35;;;;;;;;;;4871532;29;20042;-64
2021/12/23 08:04:30;;;;;;;76.50;38.80;;;;;;;;;;4868702;29;20048;-63
2021/12/23 08:06:57;;;;;;;83.57;42.22;;;;;;;;;;4861874;29;20037;-62
2021/12/23 08:09:24;;;;;;;111.65;50.00;;;;;;;;;;4862340;29;20037;-62
2021/12/23 08:11:51;;;;;;;101.90;46.50;;;;;;;;;;4861200;29;20031;-62
2021/12/23 08:14:17;;;;;;;108.00;50.70;;;;;;;;;;4860275;29;20102;-61
2021/12/23 08:16:43;;;;;;;120.55;55.25;;;;;;;;;;4862080;29;20030;-63
2021/12/23 08:19:13;;;;;;;136.73;62.33;;;;;;;;;;4867855;29;20033;-61
2021/12/23 08:21:39;;;;;;;136.93;61.60;;;;;;;;;;4899246;29;20084;-63
2021/12/23 08:24:05;;;;;;;134.32;62.22;;;;;;;;;;4899040;29;20397;-63
2021/12/23 08:26:39;;;;;;;125.93;61.38;;;;;;;;;;4898520;29;20107;-60
2021/12/23 08:29:05;;;;;;;126.43;61.67;;;;;;;;;;4898888;29;20510;-61
2021/12/23 08:31:31;;;;;;;120.53;59.10;;;;;;;;;;4899046;29;20488;-59
2021/12/23 08:33:57;;;;;;;103.65;49.35;;;;;;;;;;4898884;29;20021;-59
2021/12/23 08:36:24;;;;;;;91.68;43.95;;;;;;;;;;4898646;29;20493;-62
2021/12/23 08:38:50;;;;;;;83.60;41.67;;;;;;;;;;4898535;29;20041;-60
2021/12/23 08:41:16;;;;;;;76.15;40.88;;;;;;;;;;4898807;29;20157;-63
2021/12/23 08:43:44;;;;;;;93.75;43.55;;;;;;;;;;4898626;29;20103;-59
2021/12/23 08:46:13;;;;;;;102.10;48.42;;;;;;;;;;4898791;29;20434;-61
2021/12/23 08:48:39;;;;;;;109.40;53.00;;;;;;;;;;4898531;29;20055;-61
2021/12/23 08:51:05;;;;;;;117.00;55.10;;;;;;;;;;4897853;29;20036;-59
2021/12/23 08:53:31;;;;;;;117.15;53.63;;;;;;;;;;4898312;29;20036;-60
2021/12/23 08:55:57;;;;;;;127.65;57.38;;;;;;;;;;4898351;29;20080;-59
2021/12/23 08:58:23;;;;;;;124.35;57.97;;;;;;;;;;4898125;29;20059;-60
2021/12/23 09:00:49;;;;;;;126.47;56.55;;;;;;;;;;4898432;29;20033;-60
2021/12/23 09:03:15;;;;;;;122.75;57.72;;;;;;;;;;4898036;29;20485;-61
2021/12/23 09:05:41;;;;;;;117.32;55.60;;;;;;;;;;4898431;29;20037;-61
2021/12/23 09:08:09;;;;;;;115.40;55.03;;;;;;;;;;4898457;29;20033;-60
2021/12/23 09:10:35;;;;;;;116.57;54.70;;;;;;;;;;4898116;29;20039;-63
2021/12/23 09:13:02;;;;;;;119.32;56.92;;;;;;;;;;4892881;29;20414;-61
2021/12/23 09:15:30;;;;;;;121.05;57.80;;;;;;;;;;4879200;29;20036;-59
2021/12/23 09:17:56;;;;;;;125.47;62.00;;;;;;;;;;4869480;29;20056;-59
2021/12/23 09:20:25;;;;;;;128.80;65.38;;;;;;;;;;4868232;29;20161;-62
2021/12/23 09:22:51;;;;;;;129.15;63.15;;;;;;;;;;4865711;29;20092;-59
2021/12/23 09:25:23;;;;;;;121.28;59.08;;;;;;;;;;4867628;29;20143;-59
2021/12/23 09:33:06;;;;;;;131.88;61.83;;;;;;;;;;4869745;29;19924;-60
2021/12/23 09:35:33;;;;;;;132.90;62.03;;;;;;;;;;4875904;29;20061;-61
2021/12/23 09:38:00;;;;;;;111.72;56.95;;;;;;;;;;4868472;29;20433;-63
2021/12/23 09:40:29;;;;;;;109.68;51.67;;;;;;;;;;4869504;29;20022;-63
2021/12/23 09:42:58;;;;;;;90.80;44.45;;;;;;;;;;4876546;29;20441;-60
2021/12/23 09:45:24;;;;;;;83.22;39.70;;;;;;;;;;4868675;29;20033;-60
2021/12/23 09:47:56;;;;;;;78.00;39.17;;;;;;;;;;4866981;29;20537;-60
2021/12/23 09:50:24;;;;;;;81.87;40.73;;;;;;;;;;4858597;29;20025;-61
2021/12/23 09:52:51;;;;;;;80.65;37.90;;;;;;;;;;4859736;29;20261;-61
2021/12/23 09:55:19;;;;;;;78.53;38.70;;;;;;;;;;4858688;29;20109;-61
2021/12/23 09:57:46;;;;;;;75.10;38.50;;;;;;;;;;4860056;29;20029;-62
2021/12/23 10:00:12;;;;;;;69.93;32.67;;;;;;;;;;4860056;29;20036;-62
2021/12/23 10:02:41;;;;;;;57.55;30.40;;;;;;;;;;4859845;29;20029;-60
2021/12/23 10:05:27;;;;;;;57.28;28.52;;;;;;;;;;4859757;29;20060;-60
2021/12/23 10:07:55;;;;;;;48.45;25.75;;;;;;;;;;4859852;29;20045;-61
2021/12/23 10:10:33;;;;;;;49.75;24.85;;;;;;;;;;4859429;29;20021;-61
2021/12/23 10:26:52;;;;;;;50.72;25.50;;;;;;;;;;4859741;29;20033;-61
2021/12/23 10:38:08;;;;;;;62.15;30.20;;;;;;;;;;4859064;29;20197;-60
2021/12/23 10:40:38;;;;;;;62.92;30.23;;;;;;;;;;4858959;29;20097;-61
2021/12/23 10:43:06;;;;;;;57.78;30.10;;;;;;;;;;4858970;29;20044;-61
2021/12/23 10:45:47;;;;;;;58.42;29.45;;;;;;;;;;4859132;29;20018;-62
2021/12/23 10:48:16;;;;;;;52.00;27.52;;;;;;;;;;4858732;29;20085;-61
2021/12/23 10:50:49;;;;;;;53.63;27.95;;;;;;;;;;4859337;29;20088;-62
2021/12/23 10:53:30;;;;;;;56.70;28.95;;;;;;;;;;4858952;29;20036;-62
2021/12/23 10:59:06;;;;;;;49.08;24.90;;;;;;;;;;4820204;29;20073;-63
2021/12/23 11:01:32;;;;;;;53.17;27.00;;;;;;;;;;4820077;29;20455;-64
2021/12/23 11:04:05;;;;;;;54.92;27.63;;;;;;;;;;4820019;29;20038;-62
2021/12/23 11:06:56;;;;;;;54.70;28.15;;;;;;;;;;4820187;29;20071;-61
2021/12/23 11:09:37;;;;;;;53.95;26.58;;;;;;;;;;4819695;29;20052;-62
2021/12/23 11:37:40;;;;;;;40.40;20.83;;;;;;;;;;4856732;29;20410;-62
2021/12/23 11:40:12;;;;;;;38.80;21.00;;;;;;;;;;4857882;29;20037;-64
2021/12/23 11:43:02;;;;;;;44.53;22.65;;;;;;;;;;4858428;29;20029;-64
2021/12/23 11:45:28;;;;;;;41.38;21.63;;;;;;;;;;4858419;29;20038;-66
2021/12/23 11:47:54;;;;;;;42.17;22.02;;;;;;;;;;4856848;29;20094;-66
2021/12/23 11:50:30;;;;;;;39.70;21.48;;;;;;;;;;4858456;29;20080;-61
2021/12/23 11:52:57;;;;;;;40.03;21.27;;;;;;;;;;4858433;29;20042;-61
2021/12/23 11:55:23;;;;;;;41.05;21.90;;;;;;;;;;4857147;29;20486;-62
2021/12/23 11:57:53;;;;;;;48.45;23.85;;;;;;;;;;4858166;29;20042;-59
2021/12/23 12:00:31;;;;;;;46.47;23.13;;;;;;;;;;4857142;29;20044;-60
2021/12/23 12:03:05;;;;;;;42.70;22.92;;;;;;;;;;4877320;29;20839;-64
2021/12/23 12:05:34;;;;;;;47.53;24.55;;;;;;;;;;4895379;29;20028;-60
2021/12/23 12:08:10;;;;;;;44.58;23.45;;;;;;;;;;4895329;29;20032;-61
2021/12/23 12:10:38;;;;;;;50.80;24.20;;;;;;;;;;4895141;29;20021;-62
2021/12/23 12:13:09;;;;;;;48.42;24.52;;;;;;;;;;4884609;29;20045;-61
2021/12/23 12:15:47;;;;;;;43.65;24.85;;;;;;;;;;4872064;29;20153;-63
2021/12/23 12:18:15;;;;;;;46.67;25.25;;;;;;;;;;4876818;29;20065;-59
2021/12/23 12:20:48;;;;;;;44.78;25.90;;;;;;;;;;4876692;29;20033;-62
2021/12/23 12:23:20;;;;;;;50.45;24.13;;;;;;;;;;4876620;29;20037;-61
2021/12/23 12:25:48;;;;;;;59.53;28.80;;;;;;;;;;4876955;29;20052;-60
2021/12/23 12:28:17;;;;;;;51.90;25.83;;;;;;;;;;4893739;29;20025;-62
2021/12/23 12:30:48;;;;;;;70.50;31.35;;;;;;;;;;4895596;29;20024;-64
2021/12/23 12:33:26;;;;;;;64.55;32.70;;;;;;;;;;4897761;29;20139;-59
2021/12/23 12:35:58;;;;;;;56.95;29.73;;;;;;;;;;4898683;29;20509;-63
2021/12/23 12:38:26;;;;;;;59.55;30.42;;;;;;;;;;4896741;29;20056;-60
2021/12/23 12:40:56;;;;;;;60.13;31.00;;;;;;;;;;4898705;29;20432;-62
2021/12/23 12:43:33;;;;;;;50.05;27.10;;;;;;;;;;4898220;29;20032;-61
2021/12/23 12:45:59;;;;;;;56.30;27.75;;;;;;;;;;4898609;29;20067;-60
2021/12/23 12:48:51;;;;;;;52.22;27.25;;;;;;;;;;4897752;29;20119;-60
2021/12/23 12:51:19;;;;;;;44.00;22.52;;;;;;;;;;4877610;29;20044;-59
2021/12/23 12:54:06;;;;;;;58.95;29.75;;;;;;;;;;4876783;29;20117;-60
2021/12/23 12:56:36;;;;;;;54.97;28.45;;;;;;;;;;4877496;29;20041;-60
2021/12/23 12:59:09;;;;;;;54.67;27.65;;;;;;;;;;4877009;29;20461;-60
2021/12/23 13:01:42;;;;;;;54.80;26.83;;;;;;;;;;4876810;29;20044;-59
2021/12/23 13:04:26;;;;;;;51.20;25.92;;;;;;;;;;4876968;29;20033;-60
2021/12/23 13:06:53;;;;;;;45.72;25.38;;;;;;;;;;4876715;29;20196;-60
2021/12/23 13:09:24;;;;;;;46.72;25.73;;;;;;;;;;4877194;29;20077;-60
2021/12/23 13:11:55;;;;;;;46.58;25.23;;;;;;;;;;4877089;29;20029;-60
2021/12/23 13:14:22;;;;;;;46.88;25.13;;;;;;;;;;4876980;29;20068;-60
2021/12/23 13:16:56;;;;;;;53.05;26.13;;;;;;;;;;4876794;29;20083;-61
2021/12/23 13:19:35;;;;;;;52.70;26.73;;;;;;;;;;4876983;29;20417;-61
2021/12/23 13:22:04;;;;;;;57.47;28.05;;;;;;;;;;4877091;29;20505;-59
2021/12/23 13:24:31;;;;;;;54.30;29.17;;;;;;;;;;4856268;29;20068;-60
2021/12/23 13:26:58;;;;;;;63.63;32.03;;;;;;;;;;4848229;29;20070;-60
2021/12/23 13:29:29;;;;;;;66.00;30.98;;;;;;;;;;4867560;29;20394;-59
2021/12/23 13:31:57;;;;;;;44.67;23.30;;;;;;;;;;4868984;29;20048;-58
2021/12/23 13:34:27;;;;;;;55.83;28.65;;;;;;;;;;4869138;29;20053;-59
2021/12/23 13:37:01;;;;;;;55.78;30.45;;;;;;;;;;4868043;29;20038;-62
2021/12/23 13:39:31;;;;;;;52.47;29.20;;;;;;;;;;4867235;29;20494;-60
2021/12/23 13:41:59;;;;;;;55.22;29.70;;;;;;;;;;4868493;29;20053;-59
2021/12/23 13:44:26;;;;;;;55.17;29.23;;;;;;;;;;4868202;29;20053;-60
2021/12/23 13:46:57;;;;;;;55.17;29.85;;;;;;;;;;4876739;29;20033;-61
2021/12/23 13:49:50;;;;;;;55.13;27.98;;;;;;;;;;4877379;29;20035;-61
2021/12/23 13:52:20;;;;;;;55.80;29.52;;;;;;;;;;4877058;29;20045;-61
2021/12/23 13:54:46;;;;;;;57.78;30.75;;;;;;;;;;4878591;29;20033;-61
2021/12/23 13:57:19;;;;;;;56.88;31.52;;;;;;;;;;4878563;29;20121;-61
2021/12/23 13:59:46;;;;;;;55.70;31.17;;;;;;;;;;4878849;29;20510;-61
2021/12/23 14:02:14;;;;;;;57.65;30.45;;;;;;;;;;4877122;29;20152;-67
2021/12/23 14:04:42;;;;;;;57.40;29.50;;;;;;;;;;4878486;29;20026;-64
2021/12/23 14:07:09;;;;;;;59.20;30.27;;;;;;;;;;4878542;29;20044;-64
2021/12/23 14:09:40;;;;;;;59.63;31.85;;;;;;;;;;4878444;29;20067;-61
2021/12/23 14:12:11;;;;;;;62.45;32.85;;;;;;;;;;4878411;29;20544;-63
2021/12/23 14:14:49;;;;;;;64.57;32.58;;;;;;;;;;4877952;29;20040;-67
2021/12/23 14:17:45;;;;;;;62.00;34.03;;;;;;;;;;4878305;29;20104;-66
2021/12/23 14:23:12;;;;;;;58.65;31.60;;;;;;;;;;4819561;29;20411;-64
2021/12/23 14:25:58;;;;;;;58.72;31.60;;;;;;;;;;4820744;29;20038;-65
2021/12/23 14:28:24;;;;;;;65.38;34.35;;;;;;;;;;4820604;29;20041;-63
2021/12/23 14:31:10;;;;;;;60.10;32.67;;;;;;;;;;4820452;29;20066;-67
2021/12/23 14:33:40;;;;;;;61.58;33.00;;;;;;;;;;4814034;29;20612;-63
2021/12/23 14:36:08;;;;;;;62.05;33.08;;;;;;;;;;4820155;29;20083;-64
2021/12/23 14:38:36;;;;;;;60.13;32.85;;;;;;;;;;4819560;29;20258;-64
2021/12/23 14:41:07;;;;;;;61.53;34.08;;;;;;;;;;4820253;29;20041;-67
2021/12/23 14:43:53;;;;;;;60.83;34.20;;;;;;;;;;4820354;29;20446;-66
2021/12/23 14:46:24;;;;;;;61.15;33.22;;;;;;;;;;4820497;29;20046;-67
2021/12/23 14:51:30;;;;;;;64.13;33.97;;;;;;;;;;4812690;29;20035;-67
2021/12/23 14:54:06;;;;;;;64.75;32.70;;;;;;;;;;4816470;29;20046;-65
2021/12/23 14:56:34;;;;;;;62.03;33.45;;;;;;;;;;4819566;29;20045;-66
2021/12/23 14:59:07;;;;;;;67.00;34.40;;;;;;;;;;4844387;29;20569;-63
2021/12/23 15:01:33;;;;;;;81.35;40.75;;;;;;;;;;4858500;29;20030;-63
2021/12/23 15:04:06;;;;;;;70.05;36.42;;;;;;;;;;4857563;29;20033;-64
2021/12/23 15:06:32;;;;;;;70.32;36.65;;;;;;;;;;4857226;29;20033;-64
2021/12/23 15:08:59;;;;;;;69.35;36.85;;;;;;;;;;4858407;29;20097;-64
2021/12/23 15:11:29;;;;;;;63.55;35.28;;;;;;;;;;4858351;29;20025;-63
2021/12/23 15:13:56;;;;;;;68.90;35.55;;;;;;;;;;4858462;29;20138;-64
2021/12/23 15:16:28;;;;;;;67.60;34.38;;;;;;;;;;4858512;29;20104;-64
2021/12/23 15:19:15;;;;;;;68.53;35.70;;;;;;;;;;4861021;29;20037;-64
2021/12/23 15:21:45;;;;;;;70.65;35.42;;;;;;;;;;4893545;29;20024;-63
2021/12/23 15:24:16;;;;;;;65.00;35.50;;;;;;;;;;4895909;29;20088;-63
2021/12/23 15:26:48;;;;;;;66.35;36.30;;;;;;;;;;4896143;29;20039;-64
2021/12/23 15:29:19;;;;;;;62.85;34.22;;;;;;;;;;4895892;29;20028;-63
2021/12/23 15:31:56;;;;;;;64.78;33.85;;;;;;;;;;4895613;29;20032;-65
2021/12/23 15:34:22;;;;;;;60.33;32.20;;;;;;;;;;4895871;29;20041;-64
2021/12/23 15:36:51;;;;;;;58.10;32.75;;;;;;;;;;4895425;29;20040;-65
2021/12/23 15:39:20;;;;;;;60.97;32.38;;;;;;;;;;4893829;29;20200;-64
2021/12/23 15:41:46;;;;;;;63.63;33.25;;;;;;;;;;4895863;29;20024;-63
2021/12/23 15:44:12;;;;;;;61.65;33.72;;;;;;;;;;4895857;29;20056;-62
2021/12/23 15:46:38;;;;;;;55.65;32.03;;;;;;;;;;4895311;29;20040;-64
2021/12/23 15:49:04;;;;;;;60.45;33.20;;;;;;;;;;4892426;29;20035;-64
2021/12/23 15:51:30;;;;;;;62.25;33.08;;;;;;;;;;4875093;29;20478;-64
2021/12/23 15:53:59;;;;;;;61.08;33.05;;;;;;;;;;4876456;29;20422;-63
2021/12/23 15:56:25;;;;;;;59.83;33.70;;;;;;;;;;4877069;29;20088;-64
2021/12/23 15:58:51;;;;;;;61.38;33.13;;;;;;;;;;4876771;29;20080;-62
2021/12/23 16:01:17;;;;;;;68.65;33.92;;;;;;;;;;4870184;29;20025;-63
2021/12/23 16:03:45;;;;;;;67.25;34.55;;;;;;;;;;4893560;29;20057;-63
2021/12/23 16:08:55;;;;;;;68.25;35.53;;;;;;;;;;4898666;29;20063;-63
2021/12/23 16:11:22;;;;;;;83.88;42.47;;;;;;;;;;4898124;29;20031;-63
2021/12/23 16:13:48;;;;;;;92.93;45.85;;;;;;;;;;4895622;29;20032;-63
2021/12/23 16:16:14;;;;;;;77.03;42.33;;;;;;;;;;4898619;29;20362;-63
2021/12/23 16:18:43;;;;;;;84.95;42.40;;;;;;;;;;4898368;29;20037;-64
2021/12/23 16:21:09;;;;;;;74.78;39.83;;;;;;;;;;4861636;29;20033;-63
2021/12/23 16:23:44;;;;;;;84.18;41.95;;;;;;;;;;4860585;29;20030;-63
2021/12/23 16:26:10;;;;;;;91.50;45.85;;;;;;;;;;4860958;29;20474;-63
2021/12/23 16:28:40;;;;;;;93.18;46.38;;;;;;;;;;4860986;29;20064;-63
2021/12/23 16:43:49;;;;;;;91.47;45.78;;;;;;;;;;4897446;29;20032;-63
2021/12/23 16:46:15;;;;;;;94.93;45.38;;;;;;;;;;4897763;29;20044;-63
2021/12/23 16:48:44;;;;;;;89.60;45.17;;;;;;;;;;4898049;29;20104;-64
2021/12/23 16:51:11;;;;;;;87.10;41.60;;;;;;;;;;4898112;29;20101;-63
2021/12/23 16:53:38;;;;;;;86.85;44.60;;;;;;;;;;4898008;29;20036;-62
2021/12/23 16:58:42;;;;;;;100.68;46.83;;;;;;;;;;4897920;29;20508;-62
2021/12/23 17:01:08;;;;;;;93.53;46.70;;;;;;;;;;4898105;29;20115;-63
2021/12/23 17:03:35;;;;;;;98.70;48.53;;;;;;;;;;4898140;29;20028;-64
2021/12/23 17:06:04;;;;;;;101.40;49.22;;;;;;;;;;4895795;29;20363;-63
2021/12/23 17:08:30;;;;;;;102.55;49.70;;;;;;;;;;4876061;29;20101;-63
2021/12/23 17:10:57;;;;;;;93.53;49.00;;;;;;;;;;4879551;29;20033;-63
2021/12/23 17:13:24;;;;;;;92.55;47.55;;;;;;;;;;4877417;29;20038;-64
2021/12/23 17:15:50;;;;;;;95.47;47.53;;;;;;;;;;4896700;29;20136;-63
2021/12/23 17:18:22;;;;;;;100.88;48.15;;;;;;;;;;4897442;29;20049;-64
2021/12/23 17:23:16;;;;;;;90.80;46.75;;;;;;;;;;4897708;29;20080;-63
2021/12/23 17:25:43;;;;;;;87.32;44.53;;;;;;;;;;4897687;29;20021;-64
2021/12/23 17:28:10;;;;;;;91.72;46.05;;;;;;;;;;4897221;29;20374;-63
2021/12/23 17:30:37;;;;;;;89.50;45.35;;;;;;;;;;4897144;29;20025;-63
2021/12/23 17:33:03;;;;;;;89.15;44.28;;;;;;;;;;4897237;29;20040;-65
2021/12/23 17:35:30;;;;;;;98.32;46.55;;;;;;;;;;4897570;29;20116;-64
2021/12/23 17:38:00;;;;;;;94.00;47.83;;;;;;;;;;4896221;29;20045;-64
2021/12/23 17:40:30;;;;;;;81.97;43.53;;;;;;;;;;4897320;29;20025;-64
2021/12/23 17:42:56;;;;;;;93.07;46.42;;;;;;;;;;4897936;29;20056;-65
2021/12/23 17:45:25;;;;;;;87.85;44.30;;;;;;;;;;4896687;29;20020;-68
2021/12/23 17:47:53;;;;;;;91.53;45.40;;;;;;;;;;4896238;29;20120;-68
2021/12/23 17:50:21;;;;;;;89.13;46.08;;;;;;;;;;4896055;29;20051;-63
2021/12/23 17:52:47;;;;;;;100.00;48.30;;;;;;;;;;4897458;29;20024;-64
2021/12/23 17:55:13;;;;;;;88.05;46.00;;;;;;;;;;4897361;29;20056;-63
2021/12/23 17:57:39;;;;;;;92.72;45.92;;;;;;;;;;4896580;29;20112;-62
2021/12/23 18:00:06;;;;;;;91.40;47.83;;;;;;;;;;4897319;29;20032;-65
2021/12/23 18:02:33;;;;;;;92.75;46.88;;;;;;;;;;4897231;29;20465;-64
2021/12/23 18:05:00;;;;;;;101.38;49.28;;;;;;;;;;4897208;29;20389;-64
2021/12/23 18:07:26;;;;;;;90.50;44.30;;;;;;;;;;4896918;29;20112;-65
2021/12/23 18:09:52;;;;;;;95.22;45.72;;;;;;;;;;4897416;29;20040;-65
2021/12/23 18:12:19;;;;;;;84.93;43.10;;;;;;;;;;4896943;29;20039;-66
2021/12/23 18:14:46;;;;;;;78.72;42.92;;;;;;;;;;4897155;29;20115;-66
2021/12/23 18:17:14;;;;;;;85.82;43.25;;;;;;;;;;4895230;29;20111;-64
2021/12/23 18:19:43;;;;;;;83.45;42.95;;;;;;;;;;4896713;29;20552;-65
2021/12/23 18:22:09;;;;;;;84.32;43.22;;;;;;;;;;4895176;29;20064;-62
2021/12/23 18:24:37;;;;;;;89.50;45.22;;;;;;;;;;4896915;29;20036;-63
2021/12/23 18:27:03;;;;;;;102.63;50.20;;;;;;;;;;4896590;29;20031;-63
2021/12/23 18:29:29;;;;;;;80.88;44.55;;;;;;;;;;4896227;29;20093;-61
2021/12/23 18:31:56;;;;;;;82.88;42.22;;;;;;;;;;4896531;29;20025;-64
2021/12/23 18:34:22;;;;;;;78.95;41.30;;;;;;;;;;4896578;29;20063;-64
2021/12/23 18:36:50;;;;;;;80.18;40.70;;;;;;;;;;4896142;29;20544;-63
2021/12/23 18:39:24;;;;;;;88.05;42.35;;;;;;;;;;4891575;29;20043;-68
2021/12/23 18:41:51;;;;;;;83.25;43.30;;;;;;;;;;4863041;29;20466;-64
2021/12/23 18:44:21;;;;;;;81.97;43.47;;;;;;;;;;4863598;29;20382;-63
2021/12/23 18:46:48;;;;;;;79.00;40.15;;;;;;;;;;4867616;29;20029;-69
2021/12/23 18:49:14;;;;;;;83.95;42.88;;;;;;;;;;4869255;29;20036;-67
2021/12/23 18:51:40;;;;;;;80.57;43.55;;;;;;;;;;4864165;29;20124;-64
2021/12/23 18:54:06;;;;;;;89.05;43.22;;;;;;;;;;4860790;29;20089;-68
2021/12/23 18:56:32;;;;;;;86.35;44.30;;;;;;;;;;4865881;29;20371;-66
2021/12/23 18:58:59;;;;;;;78.35;41.70;;;;;;;;;;4868287;29;20041;-69
2021/12/23 19:01:28;;;;;;;83.13;42.47;;;;;;;;;;4859095;29;20117;-67
2021/12/23 19:06:30;;;;;;;82.72;42.70;;;;;;;;;;4859115;29;20026;-65
2021/12/23 19:08:58;;;;;;;80.35;42.65;;;;;;;;;;4859038;29;20116;-65
2021/12/23 19:11:33;;;;;;;81.25;43.25;;;;;;;;;;4886646;29;20036;-66
2021/12/23 19:13:59;;;;;;;86.35;43.80;;;;;;;;;;4896399;29;20032;-65
2021/12/23 19:16:26;;;;;;;90.03;43.95;;;;;;;;;;4895791;29;20025;-66
2021/12/23 19:18:52;;;;;;;86.05;43.88;;;;;;;;;;4895351;29;20059;-68
2021/12/23 19:21:18;;;;;;;83.30;44.33;;;;;;;;;;4895763;29;20088;-69
2021/12/23 19:23:44;;;;;;;77.53;40.83;;;;;;;;;;4895563;29;20507;-67
2021/12/23 19:26:11;;;;;;;76.15;39.78;;;;;;;;;;4895488;29;20032;-69
2021/12/23 19:28:37;;;;;;;85.07;42.78;;;;;;;;;;4895669;29;20036;-68
2021/12/23 19:31:04;;;;;;;81.15;42.97;;;;;;;;;;4895266;29;20025;-68
2021/12/23 19:33:30;;;;;;;78.72;42.95;;;;;;;;;;4895391;29;20032;-66
2021/12/23 19:35:56;;;;;;;84.97;42.42;;;;;;;;;;4895220;29;20055;-67
2021/12/23 19:38:22;;;;;;;95.72;47.72;;;;;;;;;;4894869;29;20404;-65
2021/12/23 19:40:49;;;;;;;93.38;48.03;;;;;;;;;;4895718;29;20021;-66
2021/12/23 19:43:15;;;;;;;95.78;47.28;;;;;;;;;;4898497;29;20032;-66
2021/12/23 19:45:43;;;;;;;91.93;45.22;;;;;;;;;;4898855;29;20710;-65
2021/12/23 19:48:10;;;;;;;84.50;44.85;;;;;;;;;;4898860;29;20028;-66
2021/12/23 19:50:36;;;;;;;89.20;45.90;;;;;;;;;;4898545;29;20127;-67
2021/12/23 19:53:05;;;;;;;95.55;44.45;;;;;;;;;;4898859;29;20116;-67
2021/12/23 19:55:31;;;;;;;94.93;44.85;;;;;;;;;;4899510;29;20392;-67
2021/12/23 19:57:58;;;;;;;93.47;46.97;;;;;;;;;;4898907;29;20036;-68
2021/12/23 20:00:28;;;;;;;104.63;50.00;;;;;;;;;;4899193;29;20057;-64
2021/12/23 20:02:58;;;;;;;97.10;47.65;;;;;;;;;;4898988;29;20039;-64
2021/12/23 20:05:24;;;;;;;99.30;48.03;;;;;;;;;;4899047;29;20113;-65
2021/12/23 20:07:50;;;;;;;96.93;46.80;;;;;;;;;;4899245;29;20037;-63
2021/12/23 20:10:21;;;;;;;95.60;48.30;;;;;;;;;;4898738;29;20536;-63
2021/12/23 20:12:47;;;;;;;100.78;47.85;;;;;;;;;;4898507;29;20051;-61
2021/12/23 20:15:14;;;;;;;93.75;44.97;;;;;;;;;;4899263;29;20035;-64
2021/12/23 20:17:40;;;;;;;98.28;45.65;;;;;;;;;;4898872;29;20033;-64
2021/12/23 20:20:08;;;;;;;92.47;46.47;;;;;;;;;;4898883;29;20515;-61
2021/12/23 20:22:34;;;;;;;85.78;44.90;;;;;;;;;;4899263;29;20056;-64
2021/12/23 20:25:00;;;;;;;93.20;45.80;;;;;;;;;;4898617;29;20024;-64
2021/12/23 20:27:27;;;;;;;95.30;46.42;;;;;;;;;;4898528;29;20025;-64
2021/12/23 20:29:53;;;;;;;97.40;45.22;;;;;;;;;;4897897;29;20032;-62
2021/12/23 20:32:19;;;;;;;97.85;45.55;;;;;;;;;;4876175;29;20029;-62
2021/12/23 20:34:46;;;;;;;98.95;45.72;;;;;;;;;;4880780;29;20029;-63
2021/12/23 20:37:15;;;;;;;101.15;48.90;;;;;;;;;;4878429;29;20052;-64
2021/12/23 20:39:41;;;;;;;103.40;48.00;;;;;;;;;;4878874;29;20045;-64
2021/12/23 20:42:07;;;;;;;100.47;47.03;;;;;;;;;;4881962;29;20492;-65
2021/12/23 20:44:43;;;;;;;98.57;46.58;;;;;;;;;;4888916;29;20056;-63
2021/12/23 20:47:21;;;;;;;104.85;49.67;;;;;;;;;;4875970;29;20033;-68
2021/12/23 21:14:03;;;;;;;83.80;38.80;;;;;;;;;;4918038;29;20143;-67
2021/12/23 21:16:30;;;;;;;71.68;37.42;;;;;;;;;;4926482;29;20337;-65
2021/12/23 21:18:57;;;;;;;71.10;37.05;;;;;;;;;;4918738;29;20040;-67
2021/12/23 21:21:23;;;;;;;62.05;34.08;;;;;;;;;;4915501;29;20103;-66
2021/12/23 21:23:51;;;;;;;70.57;34.47;;;;;;;;;;4916862;29;20032;-65
2021/12/23 21:26:18;;;;;;;72.05;37.67;;;;;;;;;;4920333;29;20024;-66
2021/12/23 21:28:44;;;;;;;58.85;31.20;;;;;;;;;;4923967;29;20031;-66
2021/12/23 21:31:10;;;;;;;66.25;32.78;;;;;;;;;;4935436;29;20458;-67
2021/12/23 21:33:36;;;;;;;57.78;30.70;;;;;;;;;;4925592;29;20043;-64
2021/12/23 21:36:03;;;;;;;60.80;30.98;;;;;;;;;;4910817;29;20084;-69
2021/12/23 21:38:29;;;;;;;49.67;25.17;;;;;;;;;;4912787;29;20052;-65
2021/12/23 21:40:55;;;;;;;54.22;28.58;;;;;;;;;;4886582;29;20037;-66
2021/12/23 21:43:22;;;;;;;67.00;34.35;;;;;;;;;;4896979;29;20489;-66
2021/12/23 21:45:48;;;;;;;64.25;32.05;;;;;;;;;;4897113;29;20032;-66
2021/12/23 21:48:15;;;;;;;73.82;37.08;;;;;;;;;;4886977;29;20085;-67
2021/12/23 21:50:41;;;;;;;67.60;32.30;;;;;;;;;;4904968;29;20068;-66
2021/12/23 21:53:07;;;;;;;70.00;33.47;;;;;;;;;;4914994;29;20035;-67
2021/12/23 21:55:38;;;;;;;69.75;34.05;;;;;;;;;;4916146;29;20087;-67
2021/12/23 21:58:04;;;;;;;67.82;32.88;;;;;;;;;;4915629;29;20074;-66
2021/12/23 22:00:32;;;;;;;49.75;26.85;;;;;;;;;;4915765;29;20039;-64
2021/12/23 22:02:58;;;;;;;45.95;24.70;;;;;;;;;;4915810;29;20048;-66
2021/12/23 22:05:24;;;;;;;51.60;26.95;;;;;;;;;;4915232;29;20107;-66
2021/12/23 22:07:51;;;;;;;40.42;20.58;;;;;;;;;;4915964;29;20032;-67
2021/12/23 22:10:19;;;;;;;34.13;19.17;;;;;;;;;;4915530;29;20035;-67
2021/12/23 22:12:45;;;;;;;43.35;23.20;;;;;;;;;;4915095;29;20143;-66
2021/12/23 22:15:13;;;;;;;32.15;18.17;;;;;;;;;;4915483;29;20112;-65
2021/12/23 22:17:39;;;;;;;65.82;23.40;;;;;;;;;;4915277;29;20032;-64
2021/12/23 22:20:06;;;;;;;35.65;17.20;;;;;;;;;;4898485;29;20138;-65
2021/12/23 22:22:33;;;;;;;33.72;14.48;;;;;;;;;;4915892;29;20028;-65
2021/12/23 22:24:59;;;;;;;29.48;14.10;;;;;;;;;;4898449;29;20092;-66
2021/12/23 22:27:25;;;;;;;24.92;12.40;;;;;;;;;;4914487;29;20020;-68
2021/12/23 22:29:51;;;;;;;26.95;14.00;;;;;;;;;;4914588;29;20032;-65
2021/12/23 22:32:17;;;;;;;34.67;16.08;;;;;;;;;;4913558;29;20103;-66
2021/12/23 22:34:43;;;;;;;24.35;12.75;;;;;;;;;;4918187;29;20031;-64
2021/12/23 22:37:09;;;;;;;32.75;15.90;;;;;;;;;;4914712;29;20099;-68
2021/12/23 22:39:36;;;;;;;25.88;13.93;;;;;;;;;;4914051;29;20043;-64
2021/12/23 22:42:02;;;;;;;31.80;15.60;;;;;;;;;;4913820;29;20040;-64
2021/12/23 22:44:28;;;;;;;24.00;12.80;;;;;;;;;;4913778;29;20048;-65
2021/12/23 22:46:54;;;;;;;32.22;13.88;;;;;;;;;;4913803;29;20104;-66